Time;durP1;ratioP1;P1;durP2;ratioP2;P2;SDS_P1;SDS_P2;PMS_P1;PMS_P2;Temp;Humidity;BMP_temperature;BMP_pressure;BME280_temperature;BME280_humidity;BME280_pressure;Samples;Min_cycle;Max_cycle;Signal;HPM_P1;HPM_P2
2021/08/09 00:01:52;;;;;;;8.80;4.25;;;;;;;;;;5076679;28;20028;-69
2021/08/09 00:04:18;;;;;;;10.25;4.22;;;;;;;;;;5070387;28;20043;-69
2021/08/09 00:06:44;;;;;;;5.78;4.45;;;;;;;;;;5076479;28;20036;-69
2021/08/09 00:09:11;;;;;;;9.75;4.70;;;;;;;;;;5072141;28;20028;-69
2021/08/09 00:11:37;;;;;;;8.15;4.50;;;;;;;;;;5075452;28;20073;-69
2021/08/09 00:14:03;;;;;;;10.93;4.78;;;;;;;;;;5076922;28;20194;-69
2021/08/09 00:16:29;;;;;;;7.03;4.45;;;;;;;;;;5073829;28;20501;-69
2021/08/09 00:18:55;;;;;;;5.40;4.60;;;;;;;;;;5072877;28;20059;-69
2021/08/09 00:21:22;;;;;;;5.15;4.07;;;;;;;;;;5077195;28;20024;-69
2021/08/09 00:23:48;;;;;;;8.50;4.97;;;;;;;;;;5074477;28;20102;-69
2021/08/09 00:26:14;;;;;;;6.53;4.47;;;;;;;;;;5070724;28;20036;-69
2021/08/09 00:28:41;;;;;;;8.27;4.90;;;;;;;;;;5075886;28;20081;-69
2021/08/09 00:31:07;;;;;;;24.90;6.18;;;;;;;;;;5076641;28;20039;-69
2021/08/09 00:33:33;;;;;;;12.55;5.60;;;;;;;;;;5071601;28;20439;-69
2021/08/09 00:35:59;;;;;;;16.92;5.65;;;;;;;;;;5073374;28;20036;-69
2021/08/09 00:38:25;;;;;;;10.45;6.07;;;;;;;;;;5074624;28;20527;-69
2021/08/09 00:40:51;;;;;;;11.07;5.22;;;;;;;;;;5071035;28;20537;-69
2021/08/09 00:43:18;;;;;;;8.05;4.53;;;;;;;;;;5072291;28;20362;-69
2021/08/09 00:45:44;;;;;;;9.13;4.90;;;;;;;;;;5075628;28;20028;-69
2021/08/09 00:48:10;;;;;;;11.75;4.78;;;;;;;;;;5078359;28;20024;-69
2021/08/09 00:50:36;;;;;;;7.57;4.75;;;;;;;;;;5066180;28;20033;-69
2021/08/09 00:53:02;;;;;;;8.45;5.25;;;;;;;;;;5078288;28;20137;-69
2021/08/09 00:55:28;;;;;;;10.10;4.43;;;;;;;;;;5073395;28;20039;-69
2021/08/09 00:57:55;;;;;;;7.93;5.05;;;;;;;;;;5077740;28;20020;-69
2021/08/09 01:00:21;;;;;;;9.93;5.30;;;;;;;;;;5070777;28;20028;-69
2021/08/09 01:02:47;;;;;;;9.02;5.07;;;;;;;;;;5071173;28;20588;-69
2021/08/09 01:05:14;;;;;;;7.45;4.82;;;;;;;;;;5072344;28;20024;-69
2021/08/09 01:07:48;;;;;;;7.38;4.20;;;;;;;;;;5071661;28;20506;-72
2021/08/09 01:10:27;;;;;;;7.70;4.78;;;;;;;;;;5069237;28;20074;-69
2021/08/09 01:12:54;;;;;;;10.98;4.95;;;;;;;;;;5073238;28;20021;-69
2021/08/09 01:15:24;;;;;;;12.55;4.43;;;;;;;;;;5070535;28;20024;-69
2021/08/09 01:17:50;;;;;;;7.13;4.53;;;;;;;;;;5070689;28;20052;-69
2021/08/09 01:20:21;;;;;;;13.10;4.82;;;;;;;;;;5082333;28;20024;-69
2021/08/09 01:22:59;;;;;;;12.97;5.27;;;;;;;;;;5076969;28;20501;-69
2021/08/09 01:25:31;;;;;;;21.88;6.05;;;;;;;;;;5075372;28;20036;-69
2021/08/09 01:27:59;;;;;;;9.15;5.30;;;;;;;;;;5066802;28;20039;-69
2021/08/09 01:30:26;;;;;;;8.70;4.90;;;;;;;;;;5070981;28;20575;-69
2021/08/09 01:32:54;;;;;;;5.22;4.50;;;;;;;;;;5074763;28;20033;-69
2021/08/09 01:35:22;;;;;;;11.20;5.72;;;;;;;;;;5071575;28;20028;-69
2021/08/09 01:37:52;;;;;;;7.15;4.95;;;;;;;;;;5071545;28;20042;-69
2021/08/09 01:40:18;;;;;;;6.97;4.60;;;;;;;;;;5067851;28;20028;-69
2021/08/09 01:42:45;;;;;;;9.85;4.72;;;;;;;;;;5073888;28;20032;-69
2021/08/09 01:45:13;;;;;;;7.05;4.40;;;;;;;;;;5073270;28;20039;-69
2021/08/09 01:47:39;;;;;;;9.73;4.68;;;;;;;;;;5070805;28;20024;-69
2021/08/09 01:50:06;;;;;;;8.50;4.90;;;;;;;;;;5070053;28;20296;-69
2021/08/09 01:52:33;;;;;;;10.23;4.72;;;;;;;;;;5070520;28;20024;-68
2021/08/09 01:55:00;;;;;;;10.85;4.68;;;;;;;;;;5074263;28;20070;-68
2021/08/09 01:57:27;;;;;;;8.25;4.80;;;;;;;;;;5075935;28;20029;-69
2021/08/09 01:59:53;;;;;;;6.15;4.30;;;;;;;;;;5070710;28;20534;-68
2021/08/09 02:02:25;;;;;;;7.82;4.65;;;;;;;;;;5067008;28;20557;-69
2021/08/09 02:04:52;;;;;;;7.57;4.35;;;;;;;;;;5070704;28;20449;-69
2021/08/09 02:07:18;;;;;;;6.32;4.50;;;;;;;;;;5072053;28;20500;-69
2021/08/09 02:09:44;;;;;;;8.38;4.97;;;;;;;;;;5076021;28;20031;-69
2021/08/09 02:12:10;;;;;;;8.32;4.72;;;;;;;;;;5072664;28;20028;-69
2021/08/09 02:14:40;;;;;;;7.88;4.30;;;;;;;;;;5071639;28;20423;-69
2021/08/09 02:17:22;;;;;;;12.02;5.20;;;;;;;;;;5073888;28;20029;-69
2021/08/09 02:19:52;;;;;;;7.60;4.90;;;;;;;;;;5071752;28;20222;-69
2021/08/09 02:22:27;;;;;;;7.38;4.80;;;;;;;;;;5076687;28;20032;-69
2021/08/09 02:25:00;;;;;;;5.72;4.53;;;;;;;;;;5074579;28;20028;-69
2021/08/09 02:27:48;;;;;;;13.52;5.57;;;;;;;;;;5073509;28;20043;-69
2021/08/09 02:30:16;;;;;;;11.10;5.13;;;;;;;;;;5071970;28;20040;-69
2021/08/09 02:32:43;;;;;;;14.07;6.32;;;;;;;;;;5073551;28;20020;-69
2021/08/09 02:35:10;;;;;;;8.93;5.80;;;;;;;;;;5073268;28;20086;-69
2021/08/09 02:37:36;;;;;;;6.25;5.55;;;;;;;;;;5071481;28;20052;-69
2021/08/09 02:40:03;;;;;;;7.35;6.18;;;;;;;;;;5067477;28;20032;-69
2021/08/09 02:42:29;;;;;;;12.65;8.10;;;;;;;;;;5073327;28;20032;-69
2021/08/09 02:44:55;;;;;;;8.50;7.55;;;;;;;;;;5072531;28;20050;-69
2021/08/09 02:47:22;;;;;;;9.05;7.47;;;;;;;;;;5071696;28;20047;-69
2021/08/09 02:49:49;;;;;;;12.30;7.68;;;;;;;;;;5071337;28;20032;-69
2021/08/09 02:52:16;;;;;;;9.98;8.15;;;;;;;;;;5081393;28;20099;-69
2021/08/09 02:54:45;;;;;;;10.30;6.82;;;;;;;;;;5075258;28;20268;-69
2021/08/09 02:57:12;;;;;;;9.10;6.38;;;;;;;;;;5077026;28;20016;-69
2021/08/09 02:59:38;;;;;;;6.70;5.35;;;;;;;;;;5077540;28;20035;-69
2021/08/09 03:02:06;;;;;;;8.75;5.15;;;;;;;;;;5068629;28;20028;-69
2021/08/09 03:04:32;;;;;;;9.77;6.28;;;;;;;;;;5072754;28;20017;-69
2021/08/09 03:06:59;;;;;;;6.97;5.60;;;;;;;;;;5086331;28;20184;-69
2021/08/09 03:09:25;;;;;;;6.50;5.47;;;;;;;;;;5086535;28;20012;-69
2021/08/09 03:11:51;;;;;;;6.57;5.15;;;;;;;;;;5086290;28;20254;-69
2021/08/09 03:14:21;;;;;;;10.48;4.60;;;;;;;;;;5085225;28;20027;-69
2021/08/09 03:16:48;;;;;;;9.15;4.60;;;;;;;;;;5085997;28;20028;-69
2021/08/09 03:19:14;;;;;;;12.20;5.25;;;;;;;;;;5086150;28;20047;-69
2021/08/09 03:21:40;;;;;;;17.00;4.68;;;;;;;;;;5086135;28;20040;-69
2021/08/09 03:24:06;;;;;;;8.57;4.68;;;;;;;;;;5086595;28;20162;-69
2021/08/09 03:26:32;;;;;;;10.00;4.60;;;;;;;;;;5084665;28;20044;-69
2021/08/09 03:28:58;;;;;;;7.32;4.65;;;;;;;;;;5086124;28;20476;-69
2021/08/09 03:31:24;;;;;;;8.27;4.93;;;;;;;;;;5085927;28;20040;-69
2021/08/09 03:33:50;;;;;;;8.18;5.38;;;;;;;;;;5085921;28;20460;-69
2021/08/09 03:36:17;;;;;;;10.77;4.88;;;;;;;;;;5084651;28;20040;-69
2021/08/09 03:38:43;;;;;;;9.18;4.63;;;;;;;;;;5085973;28;20175;-69
2021/08/09 03:41:09;;;;;;;9.85;4.80;;;;;;;;;;5085704;28;20030;-69
2021/08/09 03:43:35;;;;;;;7.53;5.07;;;;;;;;;;5085819;28;20020;-69
2021/08/09 03:46:01;;;;;;;7.63;5.00;;;;;;;;;;5085777;28;20047;-69
2021/08/09 03:48:27;;;;;;;11.40;5.57;;;;;;;;;;5084686;28;20031;-69
2021/08/09 03:50:53;;;;;;;9.27;5.38;;;;;;;;;;5085685;28;20016;-69
2021/08/09 03:53:20;;;;;;;8.02;4.78;;;;;;;;;;5085444;28;20024;-69
2021/08/09 03:55:46;;;;;;;5.65;4.68;;;;;;;;;;5085607;28;20059;-69
2021/08/09 03:58:12;;;;;;;5.97;5.15;;;;;;;;;;5085375;28;20024;-69
2021/08/09 04:00:38;;;;;;;6.32;4.25;;;;;;;;;;5083958;28;20500;-69
2021/08/09 04:03:04;;;;;;;8.30;4.40;;;;;;;;;;5084392;28;20364;-69
2021/08/09 04:05:30;;;;;;;7.88;4.75;;;;;;;;;;5084000;28;20495;-69
2021/08/09 04:07:56;;;;;;;7.07;4.57;;;;;;;;;;5083766;28;20403;-69
2021/08/09 04:10:23;;;;;;;7.10;4.45;;;;;;;;;;5085102;28;20477;-69
2021/08/09 04:12:49;;;;;;;6.90;5.50;;;;;;;;;;5085473;28;20539;-69
2021/08/09 04:15:15;;;;;;;6.53;5.68;;;;;;;;;;5084988;28;20035;-69
2021/08/09 04:17:42;;;;;;;6.72;5.50;;;;;;;;;;5084976;28;20573;-69
2021/08/09 04:20:08;;;;;;;7.30;5.32;;;;;;;;;;5083693;28;20032;-69
2021/08/09 04:22:34;;;;;;;7.60;4.97;;;;;;;;;;5085330;28;20027;-69
2021/08/09 04:25:01;;;;;;;6.82;4.82;;;;;;;;;;5084876;28;20016;-69
2021/08/09 04:27:28;;;;;;;7.85;4.40;;;;;;;;;;5084939;28;20358;-69
2021/08/09 04:29:54;;;;;;;6.70;5.10;;;;;;;;;;5083416;28;20438;-69
2021/08/09 04:32:23;;;;;;;7.18;5.00;;;;;;;;;;5084653;28;20024;-69
2021/08/09 04:34:52;;;;;;;8.90;5.07;;;;;;;;;;5084344;28;20050;-69
2021/08/09 04:37:20;;;;;;;12.05;5.72;;;;;;;;;;5084798;28;20020;-69
2021/08/09 04:39:46;;;;;;;10.77;4.88;;;;;;;;;;5084554;28;20032;-69
2021/08/09 04:42:12;;;;;;;8.63;4.90;;;;;;;;;;5081849;28;20016;-69
2021/08/09 04:44:38;;;;;;;9.90;5.68;;;;;;;;;;5085364;28;20066;-69
2021/08/09 04:47:04;;;;;;;9.30;5.25;;;;;;;;;;5083960;28;20503;-69
2021/08/09 04:49:31;;;;;;;9.73;5.32;;;;;;;;;;5084252;28;20081;-69
2021/08/09 04:51:57;;;;;;;22.65;6.15;;;;;;;;;;5082791;28;20092;-69
2021/08/09 04:54:25;;;;;;;14.23;5.70;;;;;;;;;;5084569;28;20367;-69
2021/08/09 04:56:51;;;;;;;8.10;5.53;;;;;;;;;;5084748;28;20020;-69
2021/08/09 04:59:18;;;;;;;10.05;5.70;;;;;;;;;;5082508;28;20028;-69
2021/08/09 05:01:44;;;;;;;8.95;5.95;;;;;;;;;;5084469;28;20035;-69
2021/08/09 05:04:10;;;;;;;15.00;7.35;;;;;;;;;;5084662;28;20043;-69
2021/08/09 05:06:36;;;;;;;7.65;6.32;;;;;;;;;;5084822;28;20032;-69
2021/08/09 05:09:02;;;;;;;13.68;7.45;;;;;;;;;;5084389;28;20421;-69
2021/08/09 05:11:28;;;;;;;12.27;7.30;;;;;;;;;;5084431;28;20028;-69
2021/08/09 05:13:56;;;;;;;8.05;6.03;;;;;;;;;;5082003;28;20032;-69
2021/08/09 05:16:22;;;;;;;13.82;6.00;;;;;;;;;;5084255;28;20020;-69
2021/08/09 05:18:50;;;;;;;7.75;6.10;;;;;;;;;;5084012;28;20075;-69
2021/08/09 05:21:17;;;;;;;9.07;6.10;;;;;;;;;;5083450;28;20038;-69
2021/08/09 05:23:43;;;;;;;8.63;6.68;;;;;;;;;;5083592;28;20050;-69
2021/08/09 05:26:10;;;;;;;9.07;6.35;;;;;;;;;;5084112;28;20210;-69
2021/08/09 05:28:36;;;;;;;9.20;6.50;;;;;;;;;;5084064;28;20404;-69
2021/08/09 05:31:03;;;;;;;8.07;5.95;;;;;;;;;;5083885;28;20073;-69
2021/08/09 05:33:30;;;;;;;14.32;6.47;;;;;;;;;;5084572;28;20142;-69
2021/08/09 05:35:56;;;;;;;9.50;6.55;;;;;;;;;;5082539;28;20024;-69
2021/08/09 05:38:22;;;;;;;11.93;7.55;;;;;;;;;;5083841;28;20031;-70
2021/08/09 05:40:48;;;;;;;10.88;7.30;;;;;;;;;;5084290;28;20032;-69
2021/08/09 05:43:14;;;;;;;9.93;6.93;;;;;;;;;;5083921;28;20093;-69
2021/08/09 05:45:40;;;;;;;12.55;7.45;;;;;;;;;;5082567;28;20229;-69
2021/08/09 05:48:07;;;;;;;7.50;6.00;;;;;;;;;;5083923;28;20020;-69
2021/08/09 05:50:33;;;;;;;17.10;7.25;;;;;;;;;;5083649;28;20062;-69
2021/08/09 05:52:59;;;;;;;17.80;6.38;;;;;;;;;;5083776;28;20352;-69
2021/08/09 05:55:26;;;;;;;8.05;6.25;;;;;;;;;;5084249;28;20742;-69
2021/08/09 05:57:52;;;;;;;8.50;5.50;;;;;;;;;;5081956;28;20024;-69
2021/08/09 06:00:18;;;;;;;14.15;6.28;;;;;;;;;;5084077;28;20483;-69
2021/08/09 06:02:44;;;;;;;10.00;5.93;;;;;;;;;;5084059;28;20032;-69
2021/08/09 06:05:11;;;;;;;9.60;5.55;;;;;;;;;;5083608;28;20020;-69
2021/08/09 06:07:38;;;;;;;11.85;6.38;;;;;;;;;;5082216;28;20575;-69
2021/08/09 06:10:04;;;;;;;9.27;5.97;;;;;;;;;;5083438;28;20495;-69
2021/08/09 06:12:31;;;;;;;16.27;9.77;;;;;;;;;;5083993;28;20039;-69
2021/08/09 06:14:57;;;;;;;22.02;15.43;;;;;;;;;;5083600;28;20020;-69
2021/08/09 06:17:23;;;;;;;18.88;11.68;;;;;;;;;;5083831;28;20040;-69
2021/08/09 06:19:49;;;;;;;11.70;7.68;;;;;;;;;;5082131;28;20028;-69
2021/08/09 06:22:16;;;;;;;10.20;6.88;;;;;;;;;;5083612;28;20034;-69
2021/08/09 06:24:42;;;;;;;13.02;6.47;;;;;;;;;;5085682;28;20031;-69
2021/08/09 06:27:08;;;;;;;10.13;5.05;;;;;;;;;;5087337;28;20113;-70
2021/08/09 06:29:34;;;;;;;8.02;5.45;;;;;;;;;;5085911;28;20016;-69
2021/08/09 06:32:00;;;;;;;5.35;4.50;;;;;;;;;;5087343;28;20034;-69
2021/08/09 06:34:26;;;;;;;7.43;5.32;;;;;;;;;;5087364;28;20024;-69
2021/08/09 06:36:52;;;;;;;7.65;4.75;;;;;;;;;;5087521;28;20285;-69
2021/08/09 06:39:20;;;;;;;7.32;4.70;;;;;;;;;;5087711;28;20024;-69
2021/08/09 06:41:46;;;;;;;7.10;5.15;;;;;;;;;;5087080;28;20032;-69
2021/08/09 06:44:12;;;;;;;11.65;5.50;;;;;;;;;;5086004;28;20024;-69
2021/08/09 06:46:38;;;;;;;11.35;5.70;;;;;;;;;;5086911;28;20272;-71
2021/08/09 06:49:05;;;;;;;8.90;5.25;;;;;;;;;;5087078;28;20031;-69
2021/08/09 06:51:31;;;;;;;6.68;5.50;;;;;;;;;;5086967;28;20027;-69
2021/08/09 06:53:57;;;;;;;10.18;5.82;;;;;;;;;;5086865;28;20016;-69
2021/08/09 06:56:23;;;;;;;6.22;5.00;;;;;;;;;;5087102;28;20020;-71
2021/08/09 06:58:49;;;;;;;10.07;6.05;;;;;;;;;;5085294;28;20043;-69
2021/08/09 07:01:16;;;;;;;10.77;5.80;;;;;;;;;;5086372;28;20070;-69
2021/08/09 07:03:44;;;;;;;7.68;6.13;;;;;;;;;;5086882;28;20523;-69
2021/08/09 07:06:21;;;;;;;6.88;5.15;;;;;;;;;;5086788;28;20020;-69
2021/08/09 07:08:48;;;;;;;9.20;6.40;;;;;;;;;;5084831;28;20020;-69
2021/08/09 07:11:15;;;;;;;8.30;5.85;;;;;;;;;;5086117;28;20012;-70
2021/08/09 07:13:41;;;;;;;8.57;5.85;;;;;;;;;;5086421;28;20020;-69
2021/08/09 07:16:07;;;;;;;9.93;5.90;;;;;;;;;;5084868;28;20476;-69
2021/08/09 07:18:34;;;;;;;11.35;5.70;;;;;;;;;;5084888;28;20048;-69
2021/08/09 07:21:00;;;;;;;10.88;5.47;;;;;;;;;;5086154;28;20139;-69
2021/08/09 07:23:26;;;;;;;8.93;6.30;;;;;;;;;;5086661;28;20028;-69
2021/08/09 07:25:53;;;;;;;9.07;6.53;;;;;;;;;;5086379;28;20099;-69
2021/08/09 07:28:19;;;;;;;11.13;6.35;;;;;;;;;;5084771;28;20110;-69
2021/08/09 07:30:45;;;;;;;13.95;5.93;;;;;;;;;;5086166;28;20022;-69
2021/08/09 07:33:11;;;;;;;10.32;6.30;;;;;;;;;;5086207;28;20028;-69
2021/08/09 07:35:38;;;;;;;10.95;6.00;;;;;;;;;;5085434;28;20051;-69
2021/08/09 07:38:04;;;;;;;10.23;6.18;;;;;;;;;;5086198;28;20371;-69
2021/08/09 07:40:31;;;;;;;9.20;6.38;;;;;;;;;;5086342;28;20028;-70
2021/08/09 07:42:57;;;;;;;9.15;6.32;;;;;;;;;;5084364;28;20019;-70
2021/08/09 07:45:23;;;;;;;10.52;6.43;;;;;;;;;;5085928;28;20024;-69
2021/08/09 07:47:52;;;;;;;8.23;6.20;;;;;;;;;;5086454;28;20032;-69
2021/08/09 07:50:22;;;;;;;11.75;7.13;;;;;;;;;;5085796;28;20386;-69
2021/08/09 07:52:49;;;;;;;8.15;6.47;;;;;;;;;;5086081;28;20036;-69
2021/08/09 07:55:15;;;;;;;10.88;6.85;;;;;;;;;;5084286;28;20027;-69
2021/08/09 07:57:44;;;;;;;11.63;6.53;;;;;;;;;;5085485;28;20126;-69
2021/08/09 08:00:10;;;;;;;10.15;6.40;;;;;;;;;;5085872;28;20308;-69
2021/08/09 08:02:36;;;;;;;22.17;6.70;;;;;;;;;;5085844;28;20084;-69
2021/08/09 08:05:03;;;;;;;8.02;6.00;;;;;;;;;;5085767;28;20025;-69
2021/08/09 08:07:32;;;;;;;8.50;6.10;;;;;;;;;;5083483;28;20028;-69
2021/08/09 08:09:58;;;;;;;6.13;5.03;;;;;;;;;;5085640;28;20016;-69
2021/08/09 08:12:24;;;;;;;7.70;4.82;;;;;;;;;;5085316;28;20122;-69
2021/08/09 08:14:50;;;;;;;8.80;5.80;;;;;;;;;;5085229;28;20039;-69
2021/08/09 08:17:16;;;;;;;5.70;5.10;;;;;;;;;;5085398;28;20347;-69
2021/08/09 08:19:43;;;;;;;7.72;5.10;;;;;;;;;;5083450;28;20036;-69
2021/08/09 08:22:09;;;;;;;5.72;4.75;;;;;;;;;;5085434;28;20642;-69
2021/08/09 08:24:35;;;;;;;11.75;5.43;;;;;;;;;;5085061;28;20543;-69
2021/08/09 08:27:01;;;;;;;8.15;4.70;;;;;;;;;;5085339;28;20046;-70
2021/08/09 08:29:27;;;;;;;7.43;4.43;;;;;;;;;;5083662;28;20223;-69
2021/08/09 08:31:53;;;;;;;10.70;5.28;;;;;;;;;;5084871;28;20215;-70
2021/08/09 08:34:19;;;;;;;7.75;5.13;;;;;;;;;;5085094;28;20279;-69
2021/08/09 08:36:46;;;;;;;6.00;5.15;;;;;;;;;;5084866;28;20024;-69
2021/08/09 08:39:12;;;;;;;6.90;4.78;;;;;;;;;;5083746;28;20055;-69
2021/08/09 08:41:41;;;;;;;5.40;4.85;;;;;;;;;;5084911;28;20086;-69
2021/08/09 08:44:08;;;;;;;6.18;4.53;;;;;;;;;;5084955;28;20498;-69
2021/08/09 08:46:34;;;;;;;5.65;4.03;;;;;;;;;;5084368;28;20036;-69
2021/08/09 08:49:01;;;;;;;7.03;4.28;;;;;;;;;;5082664;28;20020;-69
2021/08/09 08:51:28;;;;;;;5.15;3.97;;;;;;;;;;5084660;28;20020;-69
2021/08/09 08:53:54;;;;;;;4.43;3.35;;;;;;;;;;5084846;28;20055;-70
2021/08/09 08:56:21;;;;;;;6.20;3.33;;;;;;;;;;5083282;28;20375;-69
2021/08/09 08:58:47;;;;;;;4.72;3.30;;;;;;;;;;5084683;28;20020;-69
2021/08/09 09:01:32;;;;;;;4.35;3.60;;;;;;;;;;5084232;28;20063;-69
2021/08/09 09:03:59;;;;;;;4.38;3.38;;;;;;;;;;5084637;28;20685;-71
2021/08/09 09:06:25;;;;;;;5.45;3.40;;;;;;;;;;5084262;28;20450;-69
2021/08/09 09:08:51;;;;;;;4.13;3.15;;;;;;;;;;5082738;28;20085;-69
2021/08/09 09:11:23;;;;;;;5.80;3.47;;;;;;;;;;5084344;28;20046;-69
2021/08/09 09:14:09;;;;;;;3.40;3.10;;;;;;;;;;5084525;28;20024;-70
2021/08/09 09:16:48;;;;;;;3.72;3.10;;;;;;;;;;5084270;28;20414;-69
2021/08/09 09:19:29;;;;;;;3.92;3.35;;;;;;;;;;5084171;28;20377;-69
2021/08/09 09:21:55;;;;;;;9.30;4.27;;;;;;;;;;5082904;28;20050;-70
2021/08/09 09:24:22;;;;;;;5.68;3.90;;;;;;;;;;5084152;28;20602;-69
2021/08/09 09:26:59;;;;;;;5.18;3.80;;;;;;;;;;5082663;28;20062;-69
2021/08/09 09:29:26;;;;;;;7.43;4.22;;;;;;;;;;5084222;28;20019;-69
2021/08/09 09:31:53;;;;;;;7.90;4.57;;;;;;;;;;5084210;28;20077;-69
2021/08/09 09:34:20;;;;;;;7.32;4.32;;;;;;;;;;5083046;28;20051;-70
2021/08/09 09:36:47;;;;;;;5.72;4.10;;;;;;;;;;5083746;28;20020;-70
2021/08/09 09:39:32;;;;;;;8.07;3.90;;;;;;;;;;5084057;28;20021;-69
2021/08/09 09:41:59;;;;;;;6.25;4.13;;;;;;;;;;5082799;28;20024;-69
2021/08/09 09:44:26;;;;;;;6.45;4.43;;;;;;;;;;5084289;28;20426;-70
2021/08/09 09:46:53;;;;;;;6.85;3.92;;;;;;;;;;5083735;28;20032;-69
2021/08/09 09:49:35;;;;;;;5.25;3.67;;;;;;;;;;5082413;28;20026;-69
2021/08/09 09:52:01;;;;;;;4.75;3.97;;;;;;;;;;5084109;28;20036;-69
2021/08/09 09:54:28;;;;;;;7.95;3.88;;;;;;;;;;5084265;28;20480;-69
2021/08/09 09:56:55;;;;;;;7.28;3.80;;;;;;;;;;5084071;28;20073;-69
2021/08/09 09:59:21;;;;;;;7.45;4.40;;;;;;;;;;5080542;28;20472;-70
2021/08/09 10:01:49;;;;;;;7.03;4.03;;;;;;;;;;5075087;28;20032;-70
2021/08/09 10:04:16;;;;;;;6.45;3.78;;;;;;;;;;5079664;28;20163;-69
2021/08/09 10:06:42;;;;;;;5.85;3.83;;;;;;;;;;5079602;28;20054;-69
2021/08/09 10:09:09;;;;;;;7.53;4.18;;;;;;;;;;5082982;28;20016;-69
2021/08/09 10:11:36;;;;;;;9.13;4.05;;;;;;;;;;5081456;28;20023;-69
2021/08/09 10:14:03;;;;;;;5.47;3.92;;;;;;;;;;5082279;28;20440;-69
2021/08/09 10:16:32;;;;;;;6.70;4.20;;;;;;;;;;5085965;28;20024;-69
2021/08/09 10:18:59;;;;;;;4.75;3.83;;;;;;;;;;5087557;28;20430;-69
2021/08/09 10:21:29;;;;;;;8.63;4.45;;;;;;;;;;5087448;28;20038;-69
2021/08/09 10:23:56;;;;;;;5.22;3.55;;;;;;;;;;5087870;28;20511;-69
2021/08/09 10:26:22;;;;;;;6.53;4.13;;;;;;;;;;5087566;28;20109;-70
2021/08/09 10:28:54;;;;;;;5.85;3.88;;;;;;;;;;5086115;28;20484;-69
2021/08/09 10:31:22;;;;;;;5.20;3.72;;;;;;;;;;5082719;28;20027;-72
2021/08/09 10:33:49;;;;;;;6.07;4.13;;;;;;;;;;5095821;28;20031;-72
2021/08/09 10:36:20;;;;;;;6.70;4.35;;;;;;;;;;5074497;28;20082;-73
2021/08/09 10:38:46;;;;;;;;;;;;;;;;;;5072740;28;20028;-72
2021/08/09 10:41:15;;;;;;;8.13;3.83;;;;;;;;;;5072039;28;20015;-70
2021/08/09 10:44:00;;;;;;;4.97;3.80;;;;;;;;;;5085078;28;20024;-72
2021/08/09 10:46:36;;;;;;;6.55;4.13;;;;;;;;;;5079942;28;20040;-71
2021/08/09 10:49:02;;;;;;;7.85;3.85;;;;;;;;;;5071130;28;20028;-72
2021/08/09 10:51:47;;;;;;;5.82;3.65;;;;;;;;;;5082062;28;20028;-71
2021/08/09 10:54:28;;;;;;;4.63;4.05;;;;;;;;;;5072177;28;20039;-71
2021/08/09 10:56:55;;;;;;;7.63;4.18;;;;;;;;;;5086522;28;20042;-71
2021/08/09 10:59:40;;;;;;;5.05;3.42;;;;;;;;;;5086891;28;20096;-71
2021/08/09 11:02:15;;;;;;;9.60;3.90;;;;;;;;;;5086862;28;20275;-72
2021/08/09 11:04:41;;;;;;;4.90;3.47;;;;;;;;;;5086450;28;20048;-72
2021/08/09 11:07:17;;;;;;;8.55;3.45;;;;;;;;;;5084768;28;20495;-72
2021/08/09 11:09:44;;;;;;;7.00;4.05;;;;;;;;;;5086326;28;20565;-72
2021/08/09 11:12:12;;;;;;;4.60;3.55;;;;;;;;;;5080907;28;20024;-72
2021/08/09 11:14:56;;;;;;;5.78;3.63;;;;;;;;;;5080964;28;20032;-72
2021/08/09 11:17:22;;;;;;;7.00;3.90;;;;;;;;;;5079480;28;20507;-71
2021/08/09 11:19:49;;;;;;;4.78;3.47;;;;;;;;;;5076256;28;20537;-72
2021/08/09 11:22:21;;;;;;;5.30;3.63;;;;;;;;;;5073109;28;20115;-71
2021/08/09 11:24:47;;;;;;;7.82;4.20;;;;;;;;;;5074676;28;20025;-71
2021/08/09 11:27:13;;;;;;;5.20;3.50;;;;;;;;;;5075814;28;20040;-71
2021/08/09 11:29:55;;;;;;;5.35;3.95;;;;;;;;;;5072800;28;20055;-72
2021/08/09 11:32:40;;;;;;;5.45;3.67;;;;;;;;;;5077852;28;20652;-71
2021/08/09 11:35:06;;;;;;;5.40;3.30;;;;;;;;;;5078605;28;20031;-71
2021/08/09 11:37:33;;;;;;;8.88;4.03;;;;;;;;;;5074875;28;20140;-71
2021/08/09 11:39:59;;;;;;;5.70;4.22;;;;;;;;;;5078679;28;20067;-71
2021/08/09 11:42:25;;;;;;;6.28;3.75;;;;;;;;;;5077066;28;20031;-71
2021/08/09 11:44:52;;;;;;;6.07;3.60;;;;;;;;;;5070984;28;20023;-71
2021/08/09 11:47:21;;;;;;;7.03;4.18;;;;;;;;;;5079838;28;20044;-71
2021/08/09 11:49:48;;;;;;;7.60;4.28;;;;;;;;;;5071916;28;20031;-71
2021/08/09 11:52:20;;;;;;;9.63;4.22;;;;;;;;;;5077460;28;20016;-71
2021/08/09 11:54:47;;;;;;;6.18;3.95;;;;;;;;;;5071503;28;20044;-71
2021/08/09 11:57:13;;;;;;;10.43;4.55;;;;;;;;;;5075220;28;20034;-71
2021/08/09 11:59:40;;;;;;;6.78;4.35;;;;;;;;;;5085737;28;20012;-70
2021/08/09 12:02:08;;;;;;;6.00;4.03;;;;;;;;;;5084237;28;20121;-71
2021/08/09 12:04:46;;;;;;;8.55;4.05;;;;;;;;;;5085269;28;20527;-70
2021/08/09 12:07:23;;;;;;;4.88;3.92;;;;;;;;;;5079002;28;20029;-70
2021/08/09 12:09:50;;;;;;;4.43;3.80;;;;;;;;;;5069596;28;20043;-71
2021/08/09 12:12:17;;;;;;;4.88;4.13;;;;;;;;;;5076852;28;20052;-71
2021/08/09 12:14:44;;;;;;;5.60;3.75;;;;;;;;;;5080108;28;20036;-71
2021/08/09 12:17:20;;;;;;;4.47;3.80;;;;;;;;;;5075535;28;20027;-72
2021/08/09 12:19:47;;;;;;;4.10;3.72;;;;;;;;;;5084572;28;20028;-71
2021/08/09 12:22:17;;;;;;;8.43;3.88;;;;;;;;;;5078927;28;20060;-72
2021/08/09 12:24:44;;;;;;;5.90;4.75;;;;;;;;;;5078272;28;20039;-72
2021/08/09 12:27:15;;;;;;;6.82;4.15;;;;;;;;;;5067059;28;20464;-72
2021/08/09 12:29:59;;;;;;;5.25;4.20;;;;;;;;;;5079547;28;20450;-72
2021/08/09 12:32:26;;;;;;;5.35;4.57;;;;;;;;;;5084934;28;20038;-72
2021/08/09 12:34:53;;;;;;;5.95;4.50;;;;;;;;;;5083044;28;20494;-72
2021/08/09 12:37:19;;;;;;;5.22;4.18;;;;;;;;;;5077051;28;20180;-72
2021/08/09 12:39:45;;;;;;;5.43;4.35;;;;;;;;;;5078162;28;20070;-72
2021/08/09 12:42:15;;;;;;;4.63;4.05;;;;;;;;;;5084588;28;20023;-72
2021/08/09 12:44:41;;;;;;;6.63;4.00;;;;;;;;;;5084818;28;20446;-72
2021/08/09 12:47:07;;;;;;;6.00;3.55;;;;;;;;;;5079262;28;20060;-72
2021/08/09 12:49:33;;;;;;;7.07;4.05;;;;;;;;;;5084411;28;20102;-72
2021/08/09 12:51:59;;;;;;;5.88;3.97;;;;;;;;;;5084045;28;20391;-72
2021/08/09 12:54:26;;;;;;;5.90;4.32;;;;;;;;;;5074843;28;20020;-72
2021/08/09 12:56:52;;;;;;;9.15;4.38;;;;;;;;;;5078838;28;20108;-72
2021/08/09 12:59:18;;;;;;;7.15;4.30;;;;;;;;;;5083555;28;20035;-72
2021/08/09 13:01:44;;;;;;;6.25;4.45;;;;;;;;;;5084164;28;20070;-72
2021/08/09 13:04:10;;;;;;;5.97;4.60;;;;;;;;;;5083904;28;20034;-72
2021/08/09 13:06:37;;;;;;;5.05;4.45;;;;;;;;;;5076389;28;20084;-72
2021/08/09 13:09:03;;;;;;;4.70;4.13;;;;;;;;;;5072678;28;20029;-71
2021/08/09 13:11:29;;;;;;;8.50;3.90;;;;;;;;;;5082379;28;20024;-72
2021/08/09 13:13:55;;;;;;;6.25;4.13;;;;;;;;;;5066111;28;20035;-72
2021/08/09 13:16:21;;;;;;;6.95;4.60;;;;;;;;;;5070303;28;20046;-72
2021/08/09 13:18:47;;;;;;;4.68;4.22;;;;;;;;;;5083798;28;20047;-72
2021/08/09 13:21:14;;;;;;;6.43;4.60;;;;;;;;;;5082021;28;20024;-72
2021/08/09 13:23:40;;;;;;;8.73;4.57;;;;;;;;;;5083737;28;20028;-72
2021/08/09 13:26:07;;;;;;;6.75;4.60;;;;;;;;;;5084016;28;20031;-72
2021/08/09 13:28:34;;;;;;;6.95;4.13;;;;;;;;;;5083623;28;20020;-70
2021/08/09 13:31:00;;;;;;;6.20;4.57;;;;;;;;;;5076385;28;20587;-71
2021/08/09 13:33:26;;;;;;;5.43;3.63;;;;;;;;;;5083239;28;20468;-71
2021/08/09 13:35:52;;;;;;;8.32;4.13;;;;;;;;;;5083694;28;20028;-71
2021/08/09 13:38:18;;;;;;;4.88;4.20;;;;;;;;;;5081832;28;20089;-71
2021/08/09 13:40:45;;;;;;;6.10;3.92;;;;;;;;;;5075313;28;20039;-72
2021/08/09 13:43:11;;;;;;;5.95;4.43;;;;;;;;;;5076543;28;20024;-72
2021/08/09 13:45:38;;;;;;;7.50;4.97;;;;;;;;;;5083589;28;20024;-71
2021/08/09 13:48:04;;;;;;;6.15;4.75;;;;;;;;;;5082019;28;20032;-71
2021/08/09 13:50:30;;;;;;;7.78;4.75;;;;;;;;;;5083291;28;20057;-71
2021/08/09 13:52:57;;;;;;;4.80;4.30;;;;;;;;;;5083325;28;20477;-71
2021/08/09 13:55:24;;;;;;;5.50;5.00;;;;;;;;;;5083272;28;20024;-71
2021/08/09 13:57:50;;;;;;;6.15;4.70;;;;;;;;;;5080692;28;20050;-71
2021/08/09 14:00:17;;;;;;;7.57;5.47;;;;;;;;;;5083712;28;20369;-71
2021/08/09 14:02:44;;;;;;;7.32;5.13;;;;;;;;;;5083248;28;20020;-71
2021/08/09 14:05:11;;;;;;;8.07;5.40;;;;;;;;;;5083382;28;20027;-72
2021/08/09 14:07:37;;;;;;;8.13;5.25;;;;;;;;;;5081815;28;20036;-72
2021/08/09 14:10:05;;;;;;;6.35;5.40;;;;;;;;;;5083407;28;20020;-71
2021/08/09 14:12:31;;;;;;;17.08;5.80;;;;;;;;;;5083590;28;20024;-71
2021/08/09 14:14:57;;;;;;;8.02;5.20;;;;;;;;;;5083428;28;20024;-71
2021/08/09 14:17:25;;;;;;;9.40;6.05;;;;;;;;;;5074058;28;20127;-71
2021/08/09 14:19:52;;;;;;;9.27;5.70;;;;;;;;;;5083209;28;20086;-71
2021/08/09 14:22:18;;;;;;;8.35;5.50;;;;;;;;;;5082978;28;20028;-71
2021/08/09 14:24:44;;;;;;;6.63;5.18;;;;;;;;;;5083175;28;20058;-71
2021/08/09 14:27:11;;;;;;;11.93;5.57;;;;;;;;;;5081831;28;20042;-71
2021/08/09 14:29:37;;;;;;;9.30;5.55;;;;;;;;;;5082235;28;20063;-71
2021/08/09 14:32:07;;;;;;;9.57;5.70;;;;;;;;;;5071693;28;20115;-71
2021/08/09 14:34:33;;;;;;;6.57;5.03;;;;;;;;;;5083009;28;20044;-71
2021/08/09 14:37:01;;;;;;;6.97;5.45;;;;;;;;;;5081396;28;20474;-71
2021/08/09 14:39:27;;;;;;;5.60;5.10;;;;;;;;;;5083153;28;20031;-71
2021/08/09 14:41:53;;;;;;;6.47;5.20;;;;;;;;;;5082566;28;20036;-71
2021/08/09 14:44:19;;;;;;;11.25;5.32;;;;;;;;;;5083309;28;20099;-71